Main page
METAR-TAF:

METAR-TAF

Airports :

Pearland Regional Airport

Houston / Pearland, Texas, United States

latitude: 29-31-16N, longitude: 095-14-31W, elevation: 43 ft

Current weather observation

The report was made 1 hour and 7 minutes ago, at 21:53 UTC
Wind 8 mph from the East/Southeast
Temperature 93°F
Humidity 47%
Pressure 29.89 in. Hg
Visibility: 9 miles
Scattered clouds at a height of 5000 ft

METAR: KLVJ 142153Z AUTO 12007KT 9SM SCT050 34/21 A2989 RMK AO2 SLP120 T03390211

Time: 18:00 (23:00 UTC)


TAF: missing

Weather observations and forecasts of more than 4000 airports (METAR and TAF reports).

The available stations are represented by yellow and red dots on the map.

Hover mouse over dot to see the name of the station.

Then click to see weather observations and forecasts.

To change the map : click on the green buttons with a black cross to zoom in, on the green button with a dash to zoom out, or on the green arrows for adjacent maps.


METAR-TAF: